Time;durP1;ratioP1;P1;durP2;ratioP2;P2;SDS_P1;SDS_P2;PMS_P1;PMS_P2;Temp;Humidity;BMP_temperature;BMP_pressure;BME280_temperature;BME280_humidity;BME280_pressure;Samples;Min_cycle;Max_cycle;Signal;HPM_P1;HPM_P2
2022/06/25 00:00:25;;;;;;;9.05;6.90;;;;;;;16.37;100.00;100839.59;5049588;28;20047;-77
2022/06/25 00:02:51;;;;;;;12.30;6.97;;;;;;;16.36;99.99;100829.19;5049451;28;20152;-77
2022/06/25 00:05:28;;;;;;;9.20;6.90;;;;;;;16.31;100.00;100826.78;5049561;28;20275;-77
2022/06/25 00:07:56;;;;;;;9.32;7.03;;;;;;;16.31;100.00;100837.25;5049380;28;20291;-77
2022/06/25 00:10:23;;;;;;;10.55;6.70;;;;;;;16.29;100.00;100838.25;5049374;28;20021;-77
2022/06/25 00:12:48;;;;;;;10.13;7.00;;;;;;;16.26;100.00;100843.63;5049059;28;20028;-77
2022/06/25 00:15:14;;;;;;;10.65;6.88;;;;;;;16.24;100.00;100841.06;5049258;28;20033;-77
2022/06/25 00:17:39;;;;;;;9.27;6.65;;;;;;;16.23;100.00;100838.53;5049297;28;20020;-77
2022/06/25 00:20:06;;;;;;;10.10;6.57;;;;;;;16.19;100.00;100833.44;5048863;28;20036;-77
2022/06/25 00:22:32;;;;;;;8.65;6.70;;;;;;;16.19;100.00;100841.28;5049036;28;20039;-77
2022/06/25 00:24:57;;;;;;;8.18;6.88;;;;;;;16.13;100.00;100833.72;5049118;28;20025;-77
2022/06/25 00:27:22;;;;;;;11.80;6.63;;;;;;;16.13;100.00;100843.34;5048751;28;20059;-77
2022/06/25 00:29:48;;;;;;;8.35;6.55;;;;;;;16.13;100.00;100848.56;5049128;28;20032;-77
2022/06/25 00:32:14;;;;;;;9.68;6.40;;;;;;;16.13;100.00;100843.34;5049021;28;20020;-77
2022/06/25 00:34:39;;;;;;;8.43;6.38;;;;;;;16.11;100.00;100842.56;5049222;28;20228;-77
2022/06/25 00:37:06;;;;;;;9.23;6.45;;;;;;;16.13;100.00;100848.56;5047552;28;20160;-77
2022/06/25 00:39:31;;;;;;;8.60;6.00;;;;;;;16.10;100.00;100838.28;5049220;28;20196;-77
2022/06/25 00:41:56;;;;;;;10.25;6.57;;;;;;;16.10;100.00;100849.56;5047416;28;20029;-77
2022/06/25 00:44:22;;;;;;;8.50;6.20;;;;;;;16.10;100.00;100851.34;5049087;28;20542;-77
2022/06/25 00:46:47;;;;;;;7.10;6.40;;;;;;;16.05;100.00;100845.47;5049201;28;20478;-77
2022/06/25 00:49:13;;;;;;;9.80;6.10;;;;;;;16.08;100.00;100853.19;5049328;28;20178;-77
2022/06/25 00:51:40;;;;;;;8.68;6.35;;;;;;;16.01;100.00;100843.91;5048915;28;20053;-77
2022/06/25 00:54:09;;;;;;;8.82;6.22;;;;;;;15.95;100.00;100842.44;5049105;28;20021;-77
2022/06/25 00:56:39;;;;;;;8.93;6.20;;;;;;;15.97;100.00;100845.81;5048713;28;20025;-77
2022/06/25 00:59:05;;;;;;;6.63;5.55;;;;;;;15.94;100.00;100842.50;5048913;28;20021;-77
2022/06/25 01:01:34;;;;;;;7.85;5.57;;;;;;;15.96;100.00;100851.13;5047417;28;20025;-77
2022/06/25 01:03:59;;;;;;;7.30;5.80;;;;;;;15.94;100.00;100853.81;5049325;28;20479;-77
2022/06/25 01:06:24;;;;;;;9.77;5.80;;;;;;;15.90;100.00;100851.41;5048964;28;20041;-77
2022/06/25 01:08:50;;;;;;;8.48;5.70;;;;;;;15.90;100.00;100867.09;5049135;28;20021;-77
2022/06/25 01:11:16;;;;;;;9.48;5.70;;;;;;;15.91;100.00;100868.78;5048888;28;20032;-77
2022/06/25 01:13:41;;;;;;;7.60;5.47;;;;;;;15.94;100.00;100876.50;5049227;28;20171;-77
2022/06/25 01:16:06;;;;;;;8.07;5.22;;;;;;;15.96;100.00;100866.81;5049303;28;20029;-77
2022/06/25 01:18:32;;;;;;;7.68;5.32;;;;;;;16.01;100.00;100873.53;5047518;28;20017;-77
2022/06/25 01:20:59;;;;;;;8.15;5.28;;;;;;;16.04;100.00;100876.00;5047493;28;20085;-77
2022/06/25 01:23:25;;;;;;;7.53;5.15;;;;;;;16.04;100.00;100878.59;5048688;28;20136;-77
2022/06/25 01:25:50;;;;;;;6.18;4.85;;;;;;;16.06;100.00;100882.00;5049008;28;20112;-77
2022/06/25 01:28:16;;;;;;;8.25;5.47;;;;;;;16.04;100.00;100883.84;5048686;28;20032;-77
2022/06/25 01:30:41;;;;;;;6.82;4.63;;;;;;;16.02;100.00;100877.84;5047560;28;20044;-77
2022/06/25 01:33:08;;;;;;;6.45;4.90;;;;;;;16.03;100.00;100887.41;5049896;28;20057;-77
2022/06/25 01:35:34;;;;;;;7.95;5.25;;;;;;;16.03;100.00;100887.41;5051139;28;20515;-77
2022/06/25 01:38:00;;;;;;;7.38;5.40;;;;;;;16.03;100.00;100895.25;5052215;28;20617;-77
2022/06/25 01:40:25;;;;;;;8.10;5.15;;;;;;;16.01;100.00;100888.38;5052556;28;20082;-77
2022/06/25 01:42:59;;;;;;;6.40;4.55;;;;;;;15.99;99.84;100887.56;5051994;28;20066;-77
2022/06/25 01:45:36;;;;;;;8.20;5.03;;;;;;;15.98;100.00;100894.56;5063846;28;20028;-77
2022/06/25 01:48:02;;;;;;;8.15;5.25;;;;;;;15.96;100.00;100893.81;5063611;28;20017;-78
2022/06/25 01:50:28;;;;;;;7.50;5.10;;;;;;;15.95;100.00;100901.72;5052250;28;20052;-77
2022/06/25 01:52:54;;;;;;;7.75;5.03;;;;;;;15.92;100.00;100907.06;5051831;28;20131;-77
2022/06/25 01:55:20;;;;;;;8.48;5.15;;;;;;;15.89;100.00;100909.84;5051018;28;20107;-77
2022/06/25 01:57:46;;;;;;;8.13;5.18;;;;;;;15.87;100.00;100909.91;5051895;28;20155;-77
2022/06/25 02:00:21;;;;;;;8.80;5.18;;;;;;;15.87;100.00;100912.53;5050939;28;20020;-77
2022/06/25 02:02:46;;;;;;;;;;;;;;;15.90;100.00;100922.81;5052135;28;20080;-77
2022/06/25 02:05:14;;;;;;;7.87;5.00;;;;;;;15.82;99.96;100921.47;5051673;28;19916;-77
2022/06/25 02:07:40;;;;;;;7.65;5.10;;;;;;;15.81;100.00;100933.69;5051374;28;20032;-77
2022/06/25 02:10:06;;;;;;;8.50;5.40;;;;;;;15.76;100.00;100936.50;5051761;28;20021;-77
2022/06/25 02:12:31;;;;;;;8.45;5.10;;;;;;;15.72;100.00;100931.47;5051255;28;20021;-77
2022/06/25 02:14:57;;;;;;;6.63;5.15;;;;;;;15.72;100.00;100934.09;5051696;28;20035;-77
2022/06/25 02:17:22;;;;;;;8.90;5.32;;;;;;;15.67;100.00;100928.22;5051349;28;20020;-77
2022/06/25 02:19:47;;;;;;;7.65;5.22;;;;;;;15.63;100.00;100937.94;5051196;28;20025;-77
2022/06/25 02:22:14;;;;;;;6.53;5.00;;;;;;;15.61;100.00;100939.81;5065591;28;20024;-77
2022/06/25 02:24:44;;;;;;;9.93;5.32;;;;;;;15.58;100.00;100937.31;5071356;28;20267;-77
2022/06/25 02:27:10;;;;;;;7.82;4.97;;;;;;;15.55;100.00;100940.06;5071249;28;20024;-77
2022/06/25 02:29:36;;;;;;;7.03;5.55;;;;;;;15.52;100.00;100950.59;5071553;28;20107;-86
2022/06/25 02:32:01;;;;;;;8.30;5.68;;;;;;;15.52;100.00;100960.19;5071549;28;20111;-85
2022/06/25 02:34:27;;;;;;;9.43;6.15;;;;;;;15.49;100.00;100950.72;5071302;28;20025;-85
2022/06/25 02:36:52;;;;;;;9.93;5.70;;;;;;;15.51;100.00;100959.34;5070946;28;20017;-85
2022/06/25 02:39:18;;;;;;;9.47;5.97;;;;;;;15.49;100.00;100957.72;5071266;28;20364;-85
2022/06/25 02:41:44;;;;;;;14.23;6.38;;;;;;;15.43;100.00;100956.19;5071128;28;20278;-85
2022/06/25 02:44:10;;;;;;;6.88;5.63;;;;;;;15.43;100.00;100964.88;5063354;28;20029;-85
2022/06/25 02:46:35;;;;;;;8.77;5.28;;;;;;;15.39;100.00;100963.34;5051001;28;20047;-85
2022/06/25 02:49:01;;;;;;;8.70;6.00;;;;;;;15.39;100.00;100970.31;5050589;28;20033;-86
2022/06/25 02:51:27;;;;;;;10.18;5.68;;;;;;;15.36;100.00;100975.66;5051073;28;20551;-85
2022/06/25 02:53:53;;;;;;;8.65;5.63;;;;;;;15.32;100.00;100971.47;5050837;28;20155;-85
2022/06/25 02:59:03;;;;;;;9.15;5.68;;;;;;;15.27;100.00;100981.28;5050911;28;20087;-85
2022/06/25 03:01:29;;;;;;;9.93;5.60;;;;;;;15.23;100.00;100979.69;5050548;28;20028;-86
2022/06/25 03:03:56;;;;;;;7.88;5.75;;;;;;;15.17;100.00;100980.78;5064245;28;20104;-85
2022/06/25 03:06:23;;;;;;;9.93;5.97;;;;;;;15.19;100.00;100978.97;5050324;28;20028;-86
2022/06/25 03:08:48;;;;;;;10.95;6.25;;;;;;;15.16;100.00;100980.84;5049277;28;20505;-86
2022/06/25 03:11:14;;;;;;;10.43;6.53;;;;;;;15.20;100.00;100985.91;5050405;28;20664;-86
2022/06/25 03:13:40;;;;;;;8.30;5.85;;;;;;;15.21;100.00;100992.81;5050248;28;20056;-85
2022/06/25 03:16:07;;;;;;;9.65;6.55;;;;;;;15.18;100.00;100984.25;5050563;28;20048;-86
2022/06/25 03:18:34;;;;;;;10.27;6.15;;;;;;;15.20;100.00;100991.13;5050404;28;20024;-86
2022/06/25 03:21:00;;;;;;;12.25;6.50;;;;;;;15.18;100.00;100986.84;5050435;28;20427;-85
2022/06/25 03:23:26;;;;;;;9.48;6.43;;;;;;;15.16;100.00;100991.28;5050105;28;20092;-86
2022/06/25 03:25:51;;;;;;;9.85;6.18;;;;;;;15.13;100.00;100989.66;5050943;28;20109;-85
2022/06/25 03:28:18;;;;;;;8.05;6.40;;;;;;;15.11;100.00;100988.00;5049942;28;20021;-77
2022/06/25 03:30:43;;;;;;;9.68;6.28;;;;;;;15.13;100.00;100991.41;5050071;28;20025;-77
2022/06/25 03:33:08;;;;;;;10.63;6.32;;;;;;;15.11;100.00;100990.63;5048621;28;20032;-77
2022/06/25 03:35:34;;;;;;;9.50;6.05;;;;;;;15.12;100.00;100992.34;5050129;28;20100;-77
2022/06/25 03:37:59;;;;;;;9.93;6.28;;;;;;;15.12;100.00;100995.78;5049844;28;20390;-77
2022/06/25 03:40:25;;;;;;;8.57;6.05;;;;;;;15.09;100.00;100995.91;5050294;28;20048;-77
2022/06/25 03:42:51;;;;;;;8.15;6.22;;;;;;;15.11;100.00;100990.63;5049773;28;20036;-77
2022/06/25 03:45:16;;;;;;;8.35;6.18;;;;;;;15.10;100.00;100986.31;5049773;28;20032;-77
2022/06/25 03:47:50;;;;;;;11.10;6.22;;;;;;;15.10;100.00;100992.38;5049376;28;20476;-77
2022/06/25 03:50:21;;;;;;;10.97;6.17;;;;;;;15.12;100.00;100994.94;5049822;28;20115;-77
2022/06/25 03:52:49;;;;;;;9.38;6.38;;;;;;;15.11;100.00;100990.63;5049705;28;20032;-77
2022/06/25 03:55:15;;;;;;;9.57;6.28;;;;;;;15.10;100.00;101002.81;5049205;28;20021;-77
2022/06/25 03:57:41;;;;;;;8.80;6.53;;;;;;;15.09;100.00;100988.06;5049607;28;20052;-77
2022/06/25 04:00:07;;;;;;;8.82;6.28;;;;;;;15.16;100.00;101002.59;5049669;28;20068;-85
2022/06/25 04:02:33;;;;;;;9.02;5.97;;;;;;;15.25;100.00;101003.97;5049629;28;20052;-85
2022/06/25 04:04:59;;;;;;;7.50;6.00;;;;;;;15.31;100.00;101001.13;5049861;28;20025;-86
2022/06/25 04:07:24;;;;;;;8.88;6.57;;;;;;;15.42;100.00;101004.16;5049651;28;20021;-86
2022/06/25 04:09:50;;;;;;;10.23;6.45;;;;;;;15.47;100.00;101002.19;5049760;28;20111;-85
2022/06/25 04:12:15;;;;;;;8.43;6.57;;;;;;;15.58;100.00;101002.63;5049562;28;20079;-86
2022/06/25 04:14:41;;;;;;;10.35;6.65;;;;;;;15.71;100.00;101003.81;5049850;28;20048;-86
2022/06/25 04:17:06;;;;;;;8.63;6.55;;;;;;;15.78;100.00;101005.25;5049839;28;20079;-86
2022/06/25 04:19:39;;;;;;;11.32;6.45;;;;;;;15.88;100.00;101002.25;5049485;28;20437;-86
2022/06/25 04:22:06;;;;;;;10.02;6.45;;;;;;;15.97;100.00;100999.22;5049821;28;20021;-86
2022/06/25 04:24:31;;;;;;;8.77;6.47;;;;;;;16.02;100.00;101002.50;5049725;28;20025;-86
2022/06/25 04:26:56;;;;;;;8.45;6.50;;;;;;;16.02;100.00;100998.13;5048170;28;20033;-86
2022/06/25 04:29:22;;;;;;;8.53;6.90;;;;;;;16.05;100.00;101010.19;5048023;28;20017;-86
2022/06/25 04:31:47;;;;;;;9.55;6.25;;;;;;;16.06;100.00;101019.75;5058387;28;20290;-85
2022/06/25 04:34:15;;;;;;;10.38;6.55;;;;;;;16.04;100.00;101014.56;5069509;28;20028;-86
2022/06/25 04:36:40;;;;;;;14.75;6.95;;;;;;;16.04;100.00;101021.56;5069660;28;20495;-86
2022/06/25 04:39:06;;;;;;;9.18;7.20;;;;;;;16.05;100.00;101020.66;5069433;28;20054;-86
2022/06/25 04:41:31;;;;;;;9.00;7.55;;;;;;;16.07;100.00;101022.31;5069193;28;20021;-86
2022/06/25 04:43:57;;;;;;;8.57;6.78;;;;;;;16.08;100.00;101026.63;5056531;28;20135;-86
2022/06/25 04:46:23;;;;;;;10.40;7.03;;;;;;;16.10;100.00;101029.19;5049277;28;20082;-86
2022/06/25 04:48:48;;;;;;;11.00;7.70;;;;;;;16.15;100.00;101032.44;5049177;28;20056;-86
2022/06/25 04:51:13;;;;;;;10.82;7.30;;;;;;;16.18;100.00;101030.53;5047774;28;20273;-86
2022/06/25 04:53:55;;;;;;;11.02;7.97;;;;;;;16.29;100.00;101034.44;5049186;28;20506;-85
2022/06/25 04:56:21;;;;;;;9.32;7.40;;;;;;;16.40;100.00;101045.28;5048855;28;20028;-86
2022/06/25 04:58:46;;;;;;;10.27;7.38;;;;;;;16.50;100.00;101044.81;5049041;28;20544;-78
2022/06/25 05:01:12;;;;;;;15.03;8.30;;;;;;;16.64;99.94;101039.00;5048711;28;20055;-78
2022/06/25 05:03:37;;;;;;;11.93;7.87;;;;;;;16.78;99.85;101041.81;5048737;28;20377;-78
2022/06/25 05:06:06;;;;;;;10.23;7.20;;;;;;;16.91;98.39;101044.72;5048962;28;20380;-78
2022/06/25 05:08:31;;;;;;;11.40;7.63;;;;;;;17.03;100.00;101043.28;5052659;28;20374;-78
2022/06/25 05:10:57;;;;;;;11.32;7.20;;;;;;;17.12;99.41;101042.84;5052821;28;20100;-78
2022/06/25 05:13:22;;;;;;;9.18;7.35;;;;;;;17.18;100.00;101040.78;5052567;28;20032;-78
2022/06/25 05:15:47;;;;;;;9.43;6.88;;;;;;;17.24;97.79;101045.75;5053179;28;20479;-78
2022/06/25 05:18:13;;;;;;;10.18;7.20;;;;;;;17.31;99.06;101047.16;5052494;28;20033;-78
2022/06/25 05:20:40;;;;;;;9.77;7.05;;;;;;;17.35;99.03;101045.22;5052710;28;20035;-78
2022/06/25 05:23:06;;;;;;;9.68;7.47;;;;;;;17.42;97.52;101051.00;5052261;28;20025;-78
2022/06/25 05:25:31;;;;;;;9.98;6.68;;;;;;;17.43;97.44;101050.06;5052341;28;20164;-78
2022/06/25 05:27:56;;;;;;;9.32;6.28;;;;;;;17.44;96.75;101052.63;5052208;28;20029;-78
2022/06/25 05:30:22;;;;;;;9.23;6.03;;;;;;;17.43;95.98;101055.31;5052210;28;20021;-78
2022/06/25 05:32:47;;;;;;;8.25;6.32;;;;;;;17.43;96.41;101055.31;5052617;28;20271;-78
2022/06/25 05:35:13;;;;;;;9.35;6.30;;;;;;;17.42;97.57;101054.47;5052003;28;20036;-78
2022/06/25 05:37:38;;;;;;;9.45;6.18;;;;;;;17.40;95.12;101058.94;5052171;28;20396;-78
2022/06/25 05:40:04;;;;;;;8.55;5.88;;;;;;;17.40;93.75;101055.50;5052541;28;20036;-86
2022/06/25 05:42:29;;;;;;;7.28;5.45;;;;;;;17.41;94.61;101065.88;5057980;28;20372;-87
2022/06/25 05:44:55;;;;;;;8.02;5.63;;;;;;;17.46;95.55;101074.38;5072200;28;20032;-87
2022/06/25 05:47:20;;;;;;;8.27;5.90;;;;;;;17.56;94.04;101069.53;5070933;28;20205;-87
2022/06/25 05:49:45;;;;;;;8.18;5.32;;;;;;;17.72;94.91;101070.50;5052562;28;20048;-86
2022/06/25 05:52:10;;;;;;;8.17;5.33;;;;;;;17.89;92.59;101075.75;5051880;28;20033;-87
2022/06/25 05:54:36;;;;;;;8.35;5.03;;;;;;;18.07;94.49;101081.84;5052098;28;20277;-86
2022/06/25 05:57:01;;;;;;;8.80;5.38;;;;;;;18.23;92.53;101080.13;5052053;28;20218;-87
2022/06/25 05:59:27;;;;;;;7.45;5.00;;;;;;;18.44;91.27;101086.88;5052136;28;20207;-87
2022/06/25 06:01:52;;;;;;;7.68;4.65;;;;;;;18.59;90.52;101085.28;5051835;28;20503;-87
2022/06/25 06:04:17;;;;;;;6.63;4.50;;;;;;;18.73;90.26;101095.88;5052218;28;20029;-87
2022/06/25 06:06:42;;;;;;;6.15;4.22;;;;;;;18.80;92.00;101097.25;5052096;28;20326;-87
2022/06/25 06:09:08;;;;;;;7.40;4.20;;;;;;;18.86;87.69;101090.81;5051851;28;20170;-87
2022/06/25 06:11:33;;;;;;;7.32;3.92;;;;;;;18.89;85.79;101096.78;5051819;28;20163;-88
2022/06/25 06:13:58;;;;;;;7.77;3.47;;;;;;;18.96;85.85;101102.53;5058930;28;20066;-87
2022/06/25 06:16:24;;;;;;;4.40;3.50;;;;;;;19.01;87.23;101107.53;5071471;28;20267;-87
2022/06/25 06:18:49;;;;;;;6.03;3.55;;;;;;;19.09;84.85;101110.59;5070886;28;20277;-87
2022/06/25 06:21:14;;;;;;;7.00;3.80;;;;;;;19.17;84.35;101113.66;5055639;28;20017;-87
2022/06/25 06:23:40;;;;;;;8.60;3.63;;;;;;;19.22;82.66;101107.22;5051395;28;20284;-88
2022/06/25 06:26:05;;;;;;;4.85;3.30;;;;;;;19.27;84.32;101109.56;5051573;28;20760;-87
2022/06/25 06:28:30;;;;;;;6.40;3.55;;;;;;;19.31;84.23;101108.50;5051435;28;20057;-88
2022/06/25 06:30:55;;;;;;;8.95;3.85;;;;;;;19.34;85.89;101109.16;5050469;28;20077;-87
2022/06/25 06:33:21;;;;;;;8.60;4.22;;;;;;;19.37;85.58;101113.41;5051406;28;20111;-88
2022/06/25 06:35:46;;;;;;;7.13;3.97;;;;;;;19.39;85.71;101116.78;5051662;28;20024;-87
2022/06/25 06:38:12;;;;;;;19.33;5.75;;;;;;;19.42;83.71;101111.34;5051071;28;20495;-87
2022/06/25 06:40:37;;;;;;;6.10;3.70;;;;;;;19.45;80.89;101111.16;5051403;28;20024;-87
2022/06/25 06:43:03;;;;;;;7.80;4.00;;;;;;;19.58;81.92;101111.38;5049627;28;20769;-88
2022/06/25 06:45:28;;;;;;;6.07;3.80;;;;;;;19.69;81.44;101112.47;5051243;28;20351;-87
2022/06/25 06:47:54;;;;;;;6.97;3.90;;;;;;;19.79;80.54;101110.13;5049545;28;20043;-87
2022/06/25 06:50:19;;;;;;;6.22;4.10;;;;;;;19.84;82.81;101110.72;5051393;28;20332;-88
2022/06/25 06:52:44;;;;;;;8.02;4.32;;;;;;;19.90;80.97;101113.00;5051099;28;20394;-88
2022/06/25 06:55:10;;;;;;;6.60;3.95;;;;;;;19.98;81.10;101115.19;5051268;28;20410;-87
2022/06/25 06:57:35;;;;;;;6.47;3.80;;;;;;;20.09;80.49;101110.13;5050985;28;20371;-88
2022/06/25 07:00:04;;;;;;;9.05;4.05;;;;;;;20.25;77.50;101124.09;5050847;28;20082;-88
2022/06/25 07:02:30;;;;;;;5.82;3.63;;;;;;;20.26;78.94;101120.53;5050716;28;20117;-88
2022/06/25 07:04:55;;;;;;;6.50;3.58;;;;;;;20.28;78.78;101126.53;5050847;28;20064;-88
2022/06/25 07:07:21;;;;;;;6.65;3.50;;;;;;;20.21;76.96;101122.56;5050522;28;20479;-88
2022/06/25 07:09:46;;;;;;;7.53;3.80;;;;;;;20.06;75.72;101126.94;5051115;28;20025;-87
2022/06/25 07:12:11;;;;;;;6.00;3.57;;;;;;;19.95;79.49;101121.47;5050753;28;20147;-88
2022/06/25 07:14:37;;;;;;;5.35;3.70;;;;;;;19.98;79.33;101125.72;5050936;28;20287;-87
2022/06/25 07:17:02;;;;;;;7.67;4.20;;;;;;;19.95;78.97;101120.63;5050483;28;20049;-87
2022/06/25 07:19:28;;;;;;;7.95;4.30;;;;;;;19.95;81.07;101131.16;5049067;28;20283;-87
2022/06/25 07:21:54;;;;;;;6.80;4.25;;;;;;;20.04;81.90;101128.84;5050356;28;20033;-87
2022/06/25 07:24:20;;;;;;;6.60;3.85;;;;;;;20.21;79.59;101130.47;5050674;28;20025;-88
2022/06/25 07:26:46;;;;;;;6.97;3.83;;;;;;;20.48;81.81;101133.28;5050354;28;20378;-87
2022/06/25 07:29:11;;;;;;;5.53;3.53;;;;;;;20.77;79.18;101131.50;5050107;28;20497;-87
2022/06/25 07:31:37;;;;;;;7.35;3.72;;;;;;;20.98;78.18;101130.19;5049427;28;20025;-88
2022/06/25 07:34:02;;;;;;;5.78;3.00;;;;;;;21.09;75.79;101122.44;5049024;28;20455;-87
2022/06/25 07:36:28;;;;;;;6.88;3.30;;;;;;;21.16;73.01;101123.78;5064088;28;20404;-87
2022/06/25 07:38:54;;;;;;;5.40;3.00;;;;;;;21.19;74.96;101128.88;5061741;28;20490;-88
2022/06/25 07:41:19;;;;;;;6.88;3.20;;;;;;;21.24;73.07;101132.06;5069936;28;20052;-88
2022/06/25 07:43:45;;;;;;;5.65;3.20;;;;;;;21.33;75.19;101124.50;5058453;28;20115;-88
2022/06/25 07:46:10;;;;;;;5.90;3.30;;;;;;;21.40;72.29;101124.00;5050187;28;20020;-87
2022/06/25 07:48:36;;;;;;;4.32;3.30;;;;;;;22.25;70.91;101133.34;5050079;28;20189;-87
2022/06/25 07:53:45;;;;;;;6.50;3.38;;;;;;;23.36;69.93;101126.41;5050057;28;20585;-89
2022/06/25 07:56:10;;;;;;;5.05;3.38;;;;;;;23.10;69.06;101140.66;5049732;28;20486;-88
2022/06/25 07:58:36;;;;;;;6.35;3.33;;;;;;;22.79;66.96;101134.88;5049786;28;20119;-88
2022/06/25 08:01:02;;;;;;;5.73;3.50;;;;;;;22.54;66.87;101137.50;5049542;28;20594;-88
2022/06/25 08:03:27;;;;;;;5.20;3.00;;;;;;;22.21;69.12;101131.88;5049641;28;20288;-88
2022/06/25 08:05:53;;;;;;;6.05;3.40;;;;;;;22.02;71.65;101140.19;5050015;28;20031;-87
2022/06/25 08:08:18;;;;;;;4.85;3.50;;;;;;;21.71;71.66;101132.56;5048545;28;20032;-87
2022/06/25 08:10:44;;;;;;;6.63;3.13;;;;;;;21.60;73.46;101128.84;5049747;28;20025;-88
2022/06/25 08:13:09;;;;;;;5.57;3.33;;;;;;;21.60;73.50;101131.47;5049812;28;20073;-88
2022/06/25 08:15:35;;;;;;;6.68;3.50;;;;;;;21.52;75.49;101133.78;5050067;28;20028;-88
2022/06/25 08:18:00;;;;;;;6.82;3.45;;;;;;;21.52;75.83;101130.28;5049581;28;20021;-87
2022/06/25 08:20:26;;;;;;;6.88;3.72;;;;;;;21.59;72.54;101136.84;5049350;28;20032;-88
2022/06/25 08:22:51;;;;;;;4.47;3.28;;;;;;;21.56;70.37;101134.44;5050224;28;20040;-89
2022/06/25 08:25:17;;;;;;;4.90;3.60;;;;;;;21.40;72.09;101139.84;5049895;28;20414;-88
2022/06/25 08:27:50;;;;;;;8.95;3.50;;;;;;;21.19;72.94;101134.13;5049470;28;20075;-88
2022/06/25 08:30:16;;;;;;;5.23;3.37;;;;;;;21.00;75.81;101148.53;5049827;28;20024;-88
2022/06/25 08:32:42;;;;;;;4.50;3.40;;;;;;;20.83;77.65;101141.66;5049594;28;20047;-88
2022/06/25 08:35:07;;;;;;;5.47;3.60;;;;;;;20.74;77.19;101142.25;5049491;28;20429;-86
2022/06/25 08:37:39;;;;;;;6.65;4.07;;;;;;;20.69;78.52;101147.78;5049656;28;20033;-88
2022/06/25 08:40:06;;;;;;;5.18;3.88;;;;;;;20.68;78.05;101146.06;5049303;28;20368;-88
2022/06/25 08:42:32;;;;;;;6.75;3.90;;;;;;;20.79;76.56;101145.44;5058971;28;20103;-88
2022/06/25 08:44:57;;;;;;;6.10;4.13;;;;;;;20.80;79.52;101142.72;5073509;28;20439;-88
2022/06/25 08:47:23;;;;;;;6.28;4.70;;;;;;;20.80;77.88;101150.63;5073361;28;20024;-88
2022/06/25 08:49:48;;;;;;;6.32;4.53;;;;;;;20.81;76.03;101149.66;5073594;28;20527;-79
2022/06/25 08:52:17;;;;;;;8.77;4.80;;;;;;;20.78;77.13;101160.41;5073086;28;20035;-79
2022/06/25 08:54:43;;;;;;;5.68;3.50;;;;;;;20.84;77.00;101151.28;5073226;28;20153;-79
2022/06/25 08:57:09;;;;;;;5.07;3.45;;;;;;;21.01;73.78;101151.09;5073055;28;20111;-79
2022/06/25 08:59:34;;;;;;;4.88;3.72;;;;;;;21.26;75.79;101147.78;5073533;28;20024;-79
2022/06/25 09:02:00;;;;;;;6.97;3.70;;;;;;;21.60;76.21;101149.97;5072819;28;20048;-79
2022/06/25 09:04:26;;;;;;;5.22;3.65;;;;;;;21.94;73.76;101145.09;5073365;28;20048;-79
2022/06/25 09:07:09;;;;;;;4.40;3.40;;;;;;;22.19;71.99;101144.34;5073135;28;20035;-80
2022/06/25 09:09:35;;;;;;;7.15;3.70;;;;;;;22.20;73.44;101151.31;5067025;28;20029;-79
2022/06/25 09:12:08;;;;;;;4.80;3.50;;;;;;;22.23;73.02;101153.75;5052794;28;20029;-80
2022/06/25 09:14:35;;;;;;;5.97;3.67;;;;;;;22.16;74.34;101152.47;5052709;28;20544;-80
2022/06/25 09:17:04;;;;;;;4.40;3.70;;;;;;;22.02;72.95;101146.34;5052934;28;20131;-80
2022/06/25 09:19:40;;;;;;;6.13;4.07;;;;;;;21.86;70.70;101150.88;5053368;28;20013;-88
2022/06/25 09:22:20;;;;;;;4.88;4.20;;;;;;;21.66;70.89;101148.72;5052880;28;20028;-88
2022/06/25 09:24:57;;;;;;;4.80;4.25;;;;;;;21.38;75.18;101151.41;5052891;28;20028;-88
2022/06/25 09:27:28;;;;;;;5.53;4.35;;;;;;;21.20;74.52;101161.34;5051465;28;20325;-88
2022/06/25 09:29:54;;;;;;;6.53;4.60;;;;;;;21.09;75.28;101156.69;5052702;28;20203;-87
2022/06/25 09:32:19;;;;;;;7.72;4.55;;;;;;;21.07;76.13;101163.03;5052994;28;20103;-88
2022/06/25 09:34:45;;;;;;;5.05;4.20;;;;;;;21.19;75.51;101163.16;5052673;28;20378;-88
2022/06/25 09:37:25;;;;;;;7.43;4.10;;;;;;;21.29;76.49;101155.47;5052590;28;20025;-89
2022/06/25 09:39:53;;;;;;;5.35;4.10;;;;;;;21.46;75.47;101154.41;5052635;28;20098;-88
2022/06/25 09:42:21;;;;;;;6.80;4.07;;;;;;;21.62;74.75;101158.63;5052569;28;20037;-88
2022/06/25 09:44:48;;;;;;;6.53;4.47;;;;;;;21.75;70.54;101161.31;5051176;28;20466;-89
2022/06/25 09:47:14;;;;;;;8.98;4.30;;;;;;;21.76;73.60;101152.44;5061344;28;20028;-87
2022/06/25 09:49:40;;;;;;;5.38;4.10;;;;;;;21.78;73.04;101145.25;5052308;28;20110;-88
2022/06/25 09:52:06;;;;;;;7.25;4.53;;;;;;;21.76;73.25;101149.81;5052289;28;20028;-88
2022/06/25 09:54:31;;;;;;;4.80;4.20;;;;;;;21.70;73.98;101155.47;5051239;28;20434;-87
2022/06/25 09:56:59;;;;;;;7.80;4.40;;;;;;;21.64;72.20;101155.88;5051024;28;20471;-87
2022/06/25 09:59:31;;;;;;;6.53;4.25;;;;;;;21.56;75.60;101152.91;5050998;28;20471;-88
2022/06/25 10:01:58;;;;;;;6.25;4.38;;;;;;;21.50;77.41;101159.38;5052570;28;20470;-88
2022/06/25 10:04:27;;;;;;;6.63;5.00;;;;;;;21.40;72.40;101155.66;5051911;28;20057;-88
2022/06/25 10:06:55;;;;;;;6.70;5.18;;;;;;;21.29;77.55;101152.84;5052566;28;20039;-88
2022/06/25 10:09:24;;;;;;;6.50;4.95;;;;;;;21.38;75.66;101146.16;5051899;28;20029;-88
2022/06/25 10:11:50;;;;;;;7.53;5.50;;;;;;;21.37;77.44;101153.22;5052005;28;20033;-88
2022/06/25 10:14:15;;;;;;;5.90;5.30;;;;;;;21.22;76.77;101151.56;5065919;28;20281;-88
2022/06/25 10:16:41;;;;;;;8.07;5.23;;;;;;;21.10;76.40;101157.56;5063726;28;20086;-87
2022/06/25 10:19:10;;;;;;;7.10;5.00;;;;;;;21.10;77.50;101160.19;5051861;28;20334;-88
2022/06/25 10:21:35;;;;;;;6.20;4.68;;;;;;;21.18;74.50;101163.22;5058492;28;20056;-87
2022/06/25 10:24:04;;;;;;;6.20;4.60;;;;;;;21.33;74.34;101169.34;5071783;28;20052;-87
2022/06/25 10:26:31;;;;;;;8.25;4.72;;;;;;;21.44;76.06;101161.56;5071394;28;20028;-88
2022/06/25 10:28:57;;;;;;;5.80;4.60;;;;;;;21.69;72.12;101159.06;5071453;28;20021;-89
2022/06/25 10:31:22;;;;;;;5.75;4.70;;;;;;;21.99;69.67;101157.09;5071152;28;20031;-88
2022/06/25 10:33:57;;;;;;;5.47;4.78;;;;;;;22.27;71.79;101158.72;5071432;28;20474;-88
2022/06/25 10:36:45;;;;;;;7.18;4.70;;;;;;;22.35;73.17;101150.28;5071163;28;20058;-88
2022/06/25 10:39:22;;;;;;;6.20;4.10;;;;;;;22.29;71.47;101159.47;5049987;28;20292;-88
2022/06/25 10:45:15;;;;;;;3.22;2.92;;;;;;;22.25;70.59;101157.13;5071230;28;20089;-88
2022/06/25 10:47:47;;;;;;;4.03;3.00;;;;;;;22.43;69.77;101156.75;5071243;28;20032;-88
2022/06/25 10:50:22;;;;;;;4.60;2.83;;;;;;;22.78;68.07;101151.72;5071144;28;20021;-89
2022/06/25 10:53:06;;;;;;;3.30;2.90;;;;;;;23.13;69.01;101156.31;5069799;28;20320;-89
2022/06/25 10:55:58;;;;;;;5.57;3.30;;;;;;;23.45;68.18;101154.00;5071499;28;20036;-88
2022/06/25 10:58:40;;;;;;;3.20;2.80;;;;;;;23.83;67.29;101153.84;5070867;28;20048;-88
2022/06/25 11:01:05;;;;;;;3.25;2.70;;;;;;;24.17;66.48;101154.81;5069364;28;20028;-87
2022/06/25 11:03:33;;;;;;;2.53;2.33;;;;;;;24.05;62.71;101151.31;5070809;28;20071;-88
2022/06/25 11:06:16;;;;;;;4.30;2.80;;;;;;;23.80;62.64;101138.22;5070592;28;20032;-88
2022/06/25 11:08:41;;;;;;;4.00;2.65;;;;;;;23.72;61.83;101138.78;5070788;28;20028;-88
2022/06/25 11:11:08;;;;;;;4.30;2.70;;;;;;;23.99;65.72;101139.38;5051844;28;20059;-89
2022/06/25 11:13:34;;;;;;;3.85;2.58;;;;;;;24.39;66.41;101131.91;5049395;28;20116;-89
2022/06/25 11:15:59;;;;;;;2.95;2.28;;;;;;;24.56;59.02;101135.09;5050825;28;20025;-88
2022/06/25 11:18:24;;;;;;;3.58;2.15;;;;;;;24.65;60.06;101123.75;5050734;28;20043;-80
2022/06/25 11:20:51;;;;;;;2.72;2.47;;;;;;;24.73;59.56;101126.66;5050750;28;20045;-80
2022/06/25 11:23:17;;;;;;;2.67;2.15;;;;;;;24.74;61.51;101131.84;5050962;28;20047;-80
2022/06/25 11:28:48;;;;;;;4.05;2.47;;;;;;;24.67;63.59;101138.59;5050517;28;20071;-80
2022/06/25 11:31:21;;;;;;;3.08;2.30;;;;;;;24.72;63.80;101135.56;5050461;28;20025;-80